Airfield :
LOGIN :

Register | Disclaimer

   EN    FR    IT 

 










Legend :    VFR   Marginal VFR   IFR   Intensive IFR   Very Intensive IFR
Visi :
Ceiling :
>= 8 km
>= 3000ft
5 to 8 km
1000 to 3000 ft
1500m to 5 km
500 to 1000 ft
800 to 1500m
200 to 500 ft
< 800m
< 200 ft
Symbols :   Thunderstorms  Fog  Heavy snow  Heavy precipitations  Wind > 20 kt
SIGMETs :     Misc.  Thunderstorms  Icing  Turbulence  Mountain Waves  Volcanic Ashes






- Airport Elevation : 443 ft
- IATA code : GNA


UMMG - Grodno

CURRENT METAR :
  • 250830Z 26003G06MPS 4300 BR OVC006 05/05 Q1020 R17/190065 NOSIG RMK QBB180

EXPIRED METARs :
  • 250800Z 26003G06MPS 4300 BR OVC006 05/05 Q1020 R17/190065 NOSIG RMK QBB180
  • 250730Z 27003G06MPS 4200 BR BKN006 OVC033 05/05 Q1020 R17/190065 NOSIG RMK QBB180
  • 250700Z 27004G07MPS 4200 BR OVC006 05/05 Q1020 R17/190065 NOSIG RMK QBB180
  • 250648Z 27004G07MPS 3300 BR OVC005 05/04 Q1019 R17/190065 NOSIG RMK QBB160
  • 250630Z 27004G07MPS 2300 -RA BR OVC004 05/04 Q1019 R17/190065 NOSIG RMK QBB120
  • 250609Z 27004G07MPS 2700 -RA BR OVC004 05/04 Q1019 R17/190065 NOSIG RMK QBB120
  • 250553Z 27005G08MPS 4500 -RA BR OVC006 05/04 Q1019 R17/190065 NOSIG RMK QBB180

TAF TAF UMMG
Valid from the 25 at 09:00 until the 25 at 18:00 UTC


250811Z 2509/2518 26004G09MPS 6000 BKN007 OVC010
TEMPO 2509/2515 27005G10MPS 2500 -DZ BR OVC005



MET'MAP, your aeronautical weather chart ! - Copyright ORBIFLY December 2007 - Disclaimer

ORBIFLY MET'MAP TEAM :

Programming & Development : Alexandra Zaïnal
Concept & original design : Baudouin d'Aumeries
Assistance for programming : Marc-Olivier Méhu
Technical & hardware support : Manuel Goepfert

Contact : metmap@orbifly.com




SOURCES & CREDITS :

   NOAA